Time;durP1;ratioP1;P1;durP2;ratioP2;P2;SDS_P1;SDS_P2;PMS_P1;PMS_P2;Temp;Humidity;BMP_temperature;BMP_pressure;BME280_temperature;BME280_humidity;BME280_pressure;Samples;Min_cycle;Max_cycle;Signal;HPM_P1;HPM_P2
2022/05/04 00:01:30;;;;;;;10.57;9.03;;;;;;;15.22;67.20;99132.56;4128628;28;20246;-63
2022/05/04 00:03:35;;;;;;;10.37;9.20;;;;;;;15.18;66.85;99118.75;4123562;28;20548;-63
2022/05/04 00:05:36;;;;;;;12.60;9.10;;;;;;;16.32;63.64;99022.88;4122042;28;20304;-62
2022/05/04 00:07:38;;;;;;;9.80;7.60;;;;;;;15.88;64.16;99069.25;4123420;28;20226;-63
2022/05/04 00:09:39;;;;;;;10.27;7.10;;;;;;;15.48;65.27;99113.00;4129073;28;20226;-63
2022/05/04 00:11:42;;;;;;;8.20;7.07;;;;;;;17.39;59.19;98946.09;4127215;28;20233;-63
2022/05/04 00:13:44;;;;;;;8.97;8.07;;;;;;;17.24;59.61;98968.72;4128253;28;20706;-62
2022/05/04 00:15:46;;;;;;;10.20;8.57;;;;;;;15.91;63.41;99079.56;4128671;28;20233;-63
2022/05/04 00:17:47;;;;;;;12.43;10.83;;;;;;;16.67;61.19;99010.94;4132158;28;20277;-63
2022/05/04 00:19:49;;;;;;;13.50;11.53;;;;;;;17.60;59.28;98932.22;4132041;28;20276;-63
2022/05/04 00:21:51;;;;;;;13.07;11.67;;;;;;;15.71;63.68;99082.28;4125570;28;20253;-63
2022/05/04 00:23:53;;;;;;;11.70;10.50;;;;;;;14.46;67.87;99206.63;4125574;28;20298;-63
2022/05/04 00:25:54;;;;;;;13.37;10.37;;;;;;;15.01;66.40;99168.38;4130046;28;20234;-63
2022/05/04 00:27:56;;;;;;;11.03;9.90;;;;;;;14.61;67.49;99185.06;4132115;28;20234;-62
2022/05/04 00:29:58;;;;;;;11.57;9.50;;;;;;;15.22;65.62;99124.53;4132842;28;20240;-61
2022/05/04 00:31:59;;;;;;;10.90;9.80;;;;;;;14.61;67.59;99189.59;4125166;28;20237;-62
2022/05/04 00:34:01;;;;;;;10.03;9.00;;;;;;;14.12;68.59;99216.31;4128821;28;20252;-62
2022/05/04 00:36:03;;;;;;;10.67;9.47;;;;;;;14.40;68.11;99190.56;4131147;28;20262;-63
2022/05/04 00:38:05;;;;;;;9.93;8.93;;;;;;;14.56;67.49;99166.13;4128735;28;20562;-63
2022/05/04 00:40:07;;;;;;;9.57;8.57;;;;;;;14.28;68.26;99201.78;4129224;28;20280;-62
2022/05/04 00:42:17;;;;;;;9.73;8.47;;;;;;;14.30;67.90;99186.38;4130653;28;20324;-62
2022/05/04 00:44:19;;;;;;;9.77;8.77;;;;;;;14.86;66.15;99133.75;4127477;28;20241;-62
2022/05/04 00:46:22;;;;;;;12.00;10.20;;;;;;;14.25;68.06;99179.97;4129752;28;20233;-63
2022/05/04 00:48:24;;;;;;;12.47;9.07;;;;;;;14.31;67.91;99192.56;4127478;28;20288;-62
2022/05/04 00:50:25;;;;;;;10.07;9.00;;;;;;;14.10;68.10;99198.78;4134100;28;20658;-62
2022/05/04 00:52:27;;;;;;;9.47;8.27;;;;;;;13.90;68.33;99207.47;4131660;28;20380;-62
2022/05/04 00:54:29;;;;;;;9.93;8.93;;;;;;;15.58;64.26;99067.03;4127132;28;20703;-63
2022/05/04 00:56:31;;;;;;;11.37;10.17;;;;;;;15.17;65.05;99100.22;4134092;28;20234;-62
2022/05/04 01:00:53;;;;;;;10.87;9.57;;;;;;;14.15;67.87;99181.13;4133095;28;20295;-62
2022/05/04 01:02:56;;;;;;;14.83;9.90;;;;;;;13.91;68.88;99209.16;4131086;28;20266;-63
2022/05/04 01:04:57;;;;;;;11.60;10.40;;;;;;;14.04;69.12;99195.06;4125651;28;20326;-62
2022/05/04 01:07:00;;;;;;;11.77;10.57;;;;;;;14.52;66.78;99124.75;4128767;28;20273;-63
2022/05/04 01:09:01;;;;;;;11.60;10.40;;;;;;;16.65;60.40;98945.91;4129511;28;20284;-62
2022/05/04 01:11:03;;;;;;;12.70;10.90;;;;;;;14.20;67.38;99163.69;4129922;28;20248;-63
2022/05/04 01:13:05;;;;;;;12.47;10.37;;;;;;;14.59;66.44;99132.81;4128782;28;20479;-63
2022/05/04 01:15:07;;;;;;;12.63;11.37;;;;;;;14.06;68.58;99202.91;4124758;28;20241;-63
2022/05/04 01:17:09;;;;;;;12.20;10.93;;;;;;;16.44;60.71;98961.31;4128581;28;20229;-63
2022/05/04 01:19:12;;;;;;;13.87;12.27;;;;;;;16.30;61.25;98971.31;4126100;28;20230;-63
2022/05/04 01:21:13;;;;;;;13.93;12.53;;;;;;;16.48;61.32;98956.38;4131702;28;20276;-62
2022/05/04 01:23:16;;;;;;;14.60;12.43;;;;;;;14.43;66.44;99161.56;4126961;28;20304;-62
2022/05/04 01:25:17;;;;;;;15.17;11.77;;;;;;;13.69;69.33;99235.03;4129284;28;20293;-62
2022/05/04 01:27:19;;;;;;;12.80;11.30;;;;;;;13.64;69.72;99232.13;4131578;28;20249;-62
2022/05/04 01:29:21;;;;;;;12.10;10.90;;;;;;;13.96;68.28;99188.00;4131360;28;20242;-63
2022/05/04 01:31:23;;;;;;;11.63;10.17;;;;;;;15.39;63.54;99042.75;4124484;28;20680;-63
2022/05/04 01:33:24;;;;;;;12.20;10.57;;;;;;;14.94;64.10;99090.72;4126354;28;20793;-60
2022/05/04 01:35:26;;;;;;;13.40;11.40;;;;;;;15.28;63.16;99056.75;4127187;28;20230;-61
2022/05/04 01:37:28;;;;;;;12.50;11.20;;;;;;;14.14;66.80;99159.94;4135461;28;20772;-61
2022/05/04 01:39:30;;;;;;;12.83;11.53;;;;;;;14.02;68.63;99207.78;4126774;28;20237;-61
2022/05/04 01:43:52;;;;;;;12.73;10.07;;;;;;;14.08;66.47;99166.91;4128029;28;20234;-61
2022/05/04 01:45:54;;;;;;;11.93;10.63;;;;;;;14.25;66.11;99151.38;4134041;28;20288;-61
2022/05/04 01:47:56;;;;;;;12.77;10.83;;;;;;;13.68;68.67;99212.00;4132736;28;20321;-61
2022/05/04 01:49:57;;;;;;;11.37;10.17;;;;;;;13.51;70.03;99219.47;4130671;28;20241;-62
2022/05/04 01:51:59;;;;;;;12.83;9.80;;;;;;;13.50;70.49;99222.31;4117438;28;20467;-64
2022/05/04 01:54:01;;;;;;;10.53;9.50;;;;;;;13.16;71.29;99205.13;4124817;28;20237;-62
2022/05/04 01:56:07;;;;;;;11.90;10.57;;;;;;;13.26;70.96;99207.50;4129683;28;20296;-62
2022/05/04 01:58:11;;;;;;;9.83;8.87;;;;;;;11.05;74.77;99222.84;4129776;28;20699;-62
2022/05/04 02:00:13;;;;;;;10.27;8.90;;;;;;;12.29;72.77;99271.53;4121607;28;20245;-62
2022/05/04 02:02:15;;;;;;;10.33;8.77;;;;;;;13.30;67.79;99156.22;4109689;28;20250;-62
2022/05/04 02:04:17;;;;;;;9.90;8.90;;;;;;;13.03;69.05;99205.84;4114698;28;20243;-62
2022/05/04 02:06:19;;;;;;;10.43;8.97;;;;;;;12.92;69.40;99222.34;4121586;28;20245;-62
2022/05/04 02:08:21;;;;;;;12.40;9.23;;;;;;;13.02;68.85;99197.00;4144287;28;20244;-62
2022/05/04 02:10:23;;;;;;;10.60;9.30;;;;;;;12.98;69.54;99213.59;4144736;28;20229;-62
2022/05/04 02:12:27;;;;;;;12.90;9.10;;;;;;;12.98;69.26;99210.91;4145229;28;20233;-62
2022/05/04 02:14:33;;;;;;;10.90;8.60;;;;;;;13.36;69.20;99192.00;4146391;28;20237;-62
2022/05/04 02:16:35;;;;;;;10.30;8.93;;;;;;;13.47;68.35;99171.97;4129260;28;20491;-62
2022/05/04 02:18:36;;;;;;;13.17;9.23;;;;;;;13.33;68.12;99165.66;4145357;28;20229;-62
2022/05/04 02:20:38;;;;;;;12.13;9.53;;;;;;;13.27;68.23;99183.28;4144063;28;20405;-62
2022/05/04 02:22:39;;;;;;;10.83;9.33;;;;;;;14.20;65.59;99115.56;4142146;28;20233;-62
2022/05/04 02:24:41;;;;;;;11.17;10.03;;;;;;;14.88;62.48;99029.97;4142738;28;20225;-62
2022/05/04 02:26:43;;;;;;;11.53;10.23;;;;;;;14.55;63.62;99070.84;4139249;28;20248;-62
2022/05/04 02:28:45;;;;;;;12.93;10.00;;;;;;;14.24;64.80;99119.47;4146047;28;20241;-62
2022/05/04 02:30:47;;;;;;;12.70;10.70;;;;;;;14.91;62.66;99052.84;4138138;28;20300;-62
2022/05/04 02:32:48;;;;;;;11.17;9.83;;;;;;;15.17;62.20;99033.25;4147176;28;20244;-62
2022/05/04 02:39:30;;;;;;;9.67;8.33;;;;;;;14.17;65.15;99122.13;4142541;28;20295;-62
2022/05/04 02:41:32;;;;;;;8.50;7.60;;;;;;;13.47;67.53;99204.84;4148957;28;20241;-62
2022/05/04 02:43:34;;;;;;;9.23;7.57;;;;;;;11.42;74.47;99279.03;4142274;28;20290;-62
2022/05/04 02:45:35;;;;;;;11.17;7.17;;;;;;;11.04;76.71;99324.13;4146029;28;20279;-62
2022/05/04 02:47:38;;;;;;;8.93;7.10;;;;;;;10.78;76.64;99287.97;4144151;28;20252;-62
2022/05/04 02:49:47;;;;;;;8.80;6.83;;;;;;;10.90;77.04;99318.53;4143557;28;20247;-62
2022/05/04 02:51:49;;;;;;;8.50;6.60;;;;;;;10.80;76.27;99296.59;4142915;28;20233;-62
2022/05/04 02:53:51;;;;;;;7.97;6.67;;;;;;;10.47;77.88;99309.16;4137087;28;20950;-62
2022/05/04 02:55:53;;;;;;;9.10;7.33;;;;;;;10.68;77.18;99322.69;4142669;28;20236;-62
2022/05/04 02:57:55;;;;;;;7.40;6.40;;;;;;;11.87;72.64;99224.13;4144183;28;20599;-62
2022/05/04 02:59:56;;;;;;;8.07;6.37;;;;;;;10.96;75.15;99301.88;4146788;28;20291;-62
2022/05/04 03:04:18;;;;;;;6.60;5.90;;;;;;;13.69;66.59;99063.25;4141913;28;20331;-62
2022/05/04 03:06:20;;;;;;;6.90;6.20;;;;;;;14.12;65.11;99039.84;4141674;28;20663;-62
2022/05/04 03:08:21;;;;;;;7.33;6.30;;;;;;;13.31;67.34;99133.00;4145186;28;20641;-62
2022/05/04 03:10:23;;;;;;;7.10;6.00;;;;;;;13.23;67.85;99152.66;4146709;28;20485;-62
2022/05/04 03:12:25;;;;;;;7.67;5.60;;;;;;;13.81;66.24;99091.06;4142807;28;20236;-61
2022/05/04 03:14:28;;;;;;;8.00;5.87;;;;;;;14.70;63.32;99009.16;4142348;28;20703;-62
2022/05/04 03:16:30;;;;;;;7.00;5.93;;;;;;;14.57;63.34;99007.25;4142949;28;20523;-62
2022/05/04 03:18:32;;;;;;;6.73;5.90;;;;;;;13.39;67.10;99152.38;4148771;28;20229;-62
2022/05/04 03:20:37;;;;;;;6.70;5.83;;;;;;;13.07;68.26;99188.44;4145228;28;20256;-62
2022/05/04 03:22:39;;;;;;;6.73;5.23;;;;;;;12.88;68.90;99210.41;4146011;28;20228;-62
2022/05/04 03:24:41;;;;;;;6.90;5.50;;;;;;;12.61;69.63;99221.50;4146293;28;20225;-62
2022/05/04 03:26:43;;;;;;;9.27;6.27;;;;;;;12.52;70.01;99232.47;4141156;28;20267;-62
2022/05/04 03:28:45;;;;;;;7.50;5.80;;;;;;;12.88;69.20;99173.84;4142866;28;20517;-63
2022/05/04 03:30:47;;;;;;;8.50;6.13;;;;;;;13.27;68.37;99150.44;4144895;28;20810;-63
2022/05/04 03:32:48;;;;;;;7.97;5.83;;;;;;;13.44;67.31;99126.97;4147215;28;20248;-62
2022/05/04 03:34:50;;;;;;;6.43;5.60;;;;;;;13.29;67.28;99143.06;4143223;28;20592;-63
2022/05/04 03:36:52;;;;;;;8.77;5.50;;;;;;;13.19;67.98;99168.22;4141621;28;20241;-62
2022/05/04 03:38:54;;;;;;;8.90;6.13;;;;;;;13.42;67.04;99137.84;4143612;28;20237;-63
2022/05/04 03:40:55;;;;;;;7.80;6.70;;;;;;;13.18;67.55;99169.25;4146047;28;20450;-63
2022/05/04 03:42:57;;;;;;;7.13;6.43;;;;;;;12.50;69.70;99253.97;4141186;28;20241;-63
2022/05/04 03:44:59;;;;;;;10.00;6.63;;;;;;;12.84;69.31;99216.06;4146111;28;20364;-62
2022/05/04 03:47:00;;;;;;;7.97;6.83;;;;;;;12.33;69.84;99249.84;4148446;28;20302;-62
2022/05/04 03:49:02;;;;;;;7.00;6.30;;;;;;;12.42;70.12;99240.72;4142652;28;20241;-62
2022/05/04 03:51:05;;;;;;;7.07;6.37;;;;;;;12.65;70.03;99203.28;4148745;28;20299;-62
2022/05/04 03:53:06;;;;;;;6.97;5.97;;;;;;;13.25;68.21;99168.47;4141634;28;20272;-63
2022/05/04 03:55:08;;;;;;;7.23;6.20;;;;;;;13.53;67.30;99140.00;4148371;28;20241;-63
2022/05/04 03:57:10;;;;;;;8.60;6.10;;;;;;;14.87;61.86;98996.22;4148386;28;20240;-62
2022/05/04 03:59:11;;;;;;;8.53;6.20;;;;;;;13.94;64.70;99098.38;4145976;28;20240;-61
2022/05/04 04:01:14;;;;;;;10.00;6.40;;;;;;;14.35;63.55;99057.41;4141485;28;20249;-62
2022/05/04 04:03:16;;;;;;;7.27;5.70;;;;;;;11.03;73.32;99275.41;4145547;28;20296;-61
2022/05/04 04:05:19;;;;;;;11.27;6.27;;;;;;;11.76;72.46;99313.22;4141109;28;20242;-61
2022/05/04 04:07:21;;;;;;;8.37;6.50;;;;;;;10.42;74.74;99291.84;4145446;28;20237;-62
2022/05/04 04:09:22;;;;;;;7.80;6.27;;;;;;;10.80;74.37;99347.13;4149076;28;20651;-62
2022/05/04 04:11:24;;;;;;;6.20;5.50;;;;;;;11.72;72.66;99290.63;4146502;28;20233;-62
2022/05/04 04:13:26;;;;;;;7.53;6.00;;;;;;;12.88;68.45;99170.38;4144474;28;20652;-62
2022/05/04 04:15:28;;;;;;;7.30;6.23;;;;;;;12.61;69.60;99202.03;4145059;28;20666;-62
2022/05/04 04:17:30;;;;;;;7.10;6.20;;;;;;;13.88;65.55;99091.13;4150535;28;20241;-62
2022/05/04 04:19:32;;;;;;;8.53;6.87;;;;;;;13.33;67.27;99133.63;4147503;28;20618;-63
2022/05/04 04:21:52;;;;;;;8.10;6.30;;;;;;;14.15;64.25;99066.16;4142291;28;20236;-62
2022/05/04 04:23:55;;;;;;;9.97;6.67;;;;;;;13.67;65.94;99122.22;4148298;28;20316;-62
2022/05/04 04:25:57;;;;;;;8.00;6.23;;;;;;;14.29;63.67;99056.38;4142986;28;20296;-62
2022/05/04 04:27:58;;;;;;;7.20;6.27;;;;;;;13.80;65.86;99121.47;4149990;28;20230;-62
2022/05/04 04:30:00;;;;;;;8.80;7.10;;;;;;;11.91;71.08;99298.19;4146092;28;20224;-62
2022/05/04 04:32:02;;;;;;;9.03;6.80;;;;;;;12.82;69.57;99220.75;4150839;28;20295;-62
2022/05/04 04:34:06;;;;;;;8.40;6.90;;;;;;;13.65;65.82;99112.72;4147242;28;20630;-63
2022/05/04 04:36:13;;;;;;;7.87;7.07;;;;;;;14.51;64.17;99064.25;4148702;28;20773;-62
2022/05/04 04:38:15;;;;;;;8.33;7.30;;;;;;;14.97;62.88;99034.09;4144068;28;20230;-62
2022/05/04 04:40:16;;;;;;;10.53;7.90;;;;;;;14.67;62.82;99029.09;4143986;28;20287;-62
2022/05/04 04:42:18;;;;;;;8.90;7.27;;;;;;;13.76;66.01;99157.63;4141851;28;20775;-62
2022/05/04 04:44:20;;;;;;;10.40;7.40;;;;;;;13.14;67.30;99210.66;4145905;28;20245;-62
2022/05/04 04:46:21;;;;;;;8.53;7.63;;;;;;;13.70;67.20;99156.56;4151414;28;20771;-62
2022/05/04 04:48:23;;;;;;;9.43;7.60;;;;;;;14.52;64.30;99064.03;4147366;28;20261;-62
2022/05/04 04:50:25;;;;;;;8.40;7.60;;;;;;;12.74;69.53;99263.56;4151044;28;20237;-62
2022/05/04 04:52:27;;;;;;;9.80;7.63;;;;;;;13.86;65.97;99131.41;4145006;28;20252;-62
2022/05/04 04:54:28;;;;;;;11.50;7.63;;;;;;;14.27;65.02;99087.00;4146671;28;20229;-62
2022/05/04 04:56:30;;;;;;;11.13;7.40;;;;;;;13.89;67.14;99154.25;4144680;28;20670;-62
2022/05/04 04:58:32;;;;;;;8.40;7.20;;;;;;;14.34;65.28;99098.53;4146527;28;20295;-62
2022/05/04 05:00:34;;;;;;;12.37;7.83;;;;;;;14.57;63.54;99070.66;4147409;28;20354;-62
2022/05/04 05:02:36;;;;;;;8.87;7.70;;;;;;;13.98;65.65;99142.38;4143965;28;20226;-63
2022/05/04 05:04:38;;;;;;;9.87;7.27;;;;;;;14.09;65.81;99123.13;4148169;28;20652;-62
2022/05/04 05:06:39;;;;;;;11.70;7.70;;;;;;;14.05;66.81;99148.59;4144779;28;20280;-62
2022/05/04 05:08:41;;;;;;;13.50;9.87;;;;;;;14.29;65.70;99123.22;4146971;28;20702;-63
2022/05/04 05:10:43;;;;;;;10.77;8.07;;;;;;;14.60;65.04;99094.34;4142095;28;20245;-62
2022/05/04 05:12:50;;;;;;;9.70;7.77;;;;;;;12.00;72.79;99304.28;4147267;28;20710;-63
2022/05/04 05:17:13;;;;;;;9.53;7.47;;;;;;;12.66;71.01;99268.97;4147156;28;20739;-62
2022/05/04 05:19:15;;;;;;;8.33;7.47;;;;;;;12.14;72.63;99313.31;4147797;28;20328;-62
2022/05/04 05:21:17;;;;;;;10.00;8.00;;;;;;;13.55;69.10;99170.00;4145379;28;20245;-63
2022/05/04 05:23:20;;;;;;;11.27;7.43;;;;;;;13.40;68.09;99179.94;4150406;28;20675;-63
2022/05/04 05:25:21;;;;;;;10.00;8.43;;;;;;;13.00;71.08;99255.06;4144479;28;20702;-62
2022/05/04 05:27:23;;;;;;;8.87;7.57;;;;;;;12.46;73.08;99296.19;4140524;28;20237;-62
2022/05/04 05:29:25;;;;;;;9.77;8.27;;;;;;;12.83;71.60;99249.09;4144377;28;20241;-62
2022/05/04 05:31:26;;;;;;;10.17;8.50;;;;;;;14.96;65.30;99043.16;4149377;28;20880;-63
2022/05/04 05:33:28;;;;;;;11.47;9.00;;;;;;;14.61;66.26;99075.38;4148527;28;20237;-63
2022/05/04 05:35:29;;;;;;;10.97;8.37;;;;;;;12.18;73.94;99311.13;4140556;28;20607;-62
2022/05/04 05:37:31;;;;;;;11.57;7.57;;;;;;;13.06;72.71;99231.31;4143280;28;20233;-62
2022/05/04 05:39:33;;;;;;;9.17;7.47;;;;;;;13.50;70.21;99164.41;4144515;28;20629;-63
2022/05/04 05:41:35;;;;;;;8.30;7.50;;;;;;;13.63;70.03;99154.84;4148837;28;20510;-62
2022/05/04 05:43:36;;;;;;;13.37;7.90;;;;;;;14.33;67.69;99095.06;4143864;28;20441;-63
2022/05/04 05:45:38;;;;;;;8.57;7.67;;;;;;;14.28;68.06;99102.84;4144081;28;20229;-62
2022/05/04 05:47:40;;;;;;;11.03;8.67;;;;;;;13.75;69.93;99145.25;4146142;28;20249;-62
2022/05/04 05:49:42;;;;;;;10.30;8.30;;;;;;;12.93;71.15;99224.81;4147240;28;20229;-62
2022/05/04 05:51:43;;;;;;;9.10;8.10;;;;;;;13.08;72.14;99235.47;4148320;28;20278;-62
2022/05/04 05:53:45;;;;;;;9.30;8.20;;;;;;;11.95;75.17;99300.47;4145792;28;20705;-61
2022/05/04 05:55:47;;;;;;;13.17;9.30;;;;;;;11.47;77.88;99340.56;4146230;28;20717;-64
2022/05/04 05:57:48;;;;;;;11.87;8.90;;;;;;;11.52;78.35;99343.53;4148180;28;20235;-62
2022/05/04 05:59:50;;;;;;;11.47;10.13;;;;;;;13.17;73.53;99148.91;4125087;28;20539;-62
2022/05/04 06:01:53;;;;;;;11.47;9.50;;;;;;;14.43;68.86;99037.69;4152513;28;20624;-62
2022/05/04 06:03:54;;;;;;;12.40;9.07;;;;;;;12.60;72.96;99222.50;4145688;28;20241;-62
2022/05/04 06:05:56;;;;;;;10.70;9.60;;;;;;;12.49;74.93;99244.34;4147507;28;20259;-62
2022/05/04 06:07:58;;;;;;;13.13;10.50;;;;;;;13.14;73.81;99157.28;4139359;28;20229;-62
2022/05/04 06:10:04;;;;;;;12.13;10.87;;;;;;;13.41;71.94;99136.16;4117607;28;20231;-61
2022/05/04 06:12:06;;;;;;;13.87;10.93;;;;;;;13.73;72.35;99105.38;4142813;28;20244;-62
2022/05/04 06:14:08;;;;;;;14.27;11.20;;;;;;;12.48;75.93;99256.00;4146067;28;20234;-62
2022/05/04 06:16:09;;;;;;;12.50;10.93;;;;;;;11.96;77.71;99305.63;4137269;28;20255;-62
2022/05/04 06:18:12;;;;;;;13.33;10.53;;;;;;;13.83;72.32;99081.03;4142948;28;20813;-62
2022/05/04 06:20:14;;;;;;;12.90;10.23;;;;;;;12.48;75.81;99246.16;4143004;28;20241;-62
2022/05/04 06:22:15;;;;;;;12.60;9.77;;;;;;;13.36;74.23;99142.06;4143764;28;20240;-62
2022/05/04 06:24:17;;;;;;;12.70;9.17;;;;;;;12.55;76.15;99251.56;4145080;28;20750;-62
2022/05/04 06:26:20;;;;;;;11.50;10.03;;;;;;;14.39;70.64;99017.72;4140949;28;20673;-62
2022/05/04 06:28:22;;;;;;;12.33;9.60;;;;;;;14.63;70.34;99027.00;4144623;28;20299;-62
2022/05/04 06:35:05;;;;;;;13.77;9.63;;;;;;;14.77;68.13;99033.28;4143559;28;20336;-62
2022/05/04 06:37:06;;;;;;;12.20;9.50;;;;;;;15.61;66.59;98996.97;4142507;28;20237;-62
2022/05/04 06:39:10;;;;;;;11.37;10.17;;;;;;;16.33;62.83;98936.00;4140967;28;20241;-62
2022/05/04 06:41:11;;;;;;;11.40;9.03;;;;;;;16.36;62.57;98935.56;4146116;28;20276;-62
2022/05/04 06:43:13;;;;;;;11.47;9.87;;;;;;;16.50;61.75;98941.69;4141028;28;20298;-62
2022/05/04 06:45:15;;;;;;;11.47;9.27;;;;;;;16.91;60.28;98909.97;4143257;28;20257;-62
2022/05/04 06:47:16;;;;;;;14.67;9.90;;;;;;;14.35;65.98;99156.38;4143881;28;20660;-62
2022/05/04 06:49:18;;;;;;;11.47;9.40;;;;;;;15.26;65.60;99089.09;4139628;28;20229;-62
2022/05/04 06:51:20;;;;;;;11.20;9.43;;;;;;;15.49;64.69;99042.31;4146790;28;20378;-63
2022/05/04 06:53:21;;;;;;;11.93;10.37;;;;;;;13.40;69.61;99263.53;4143095;28;20251;-62
2022/05/04 06:55:23;;;;;;;10.60;9.50;;;;;;;14.68;66.80;99140.47;4149129;28;20237;-62
2022/05/04 06:57:25;;;;;;;11.90;9.43;;;;;;;15.87;62.62;99014.00;4144087;28;20244;-63
2022/05/04 06:59:27;;;;;;;10.20;9.17;;;;;;;16.30;59.66;98992.78;4145065;28;20303;-62
2022/05/04 07:01:30;;;;;;;10.63;9.20;;;;;;;16.24;59.09;99006.22;4143379;28;20709;-62
2022/05/04 07:03:31;;;;;;;11.00;9.80;;;;;;;16.49;56.95;98982.97;4148758;28;20920;-63
2022/05/04 07:05:33;;;;;;;11.63;9.10;;;;;;;14.86;61.46;99155.16;4141957;28;20225;-63
2022/05/04 07:07:35;;;;;;;12.57;9.43;;;;;;;16.42;57.91;99006.31;4148983;28;20236;-63
2022/05/04 07:09:36;;;;;;;10.07;9.07;;;;;;;14.14;62.28;99226.78;4144373;28;20494;-63
2022/05/04 07:11:38;;;;;;;10.47;9.07;;;;;;;16.14;58.46;99028.13;4143236;28;20282;-63
2022/05/04 07:13:41;;;;;;;9.90;8.90;;;;;;;15.75;60.92;99089.72;4147241;28;20287;-63
2022/05/04 07:15:44;;;;;;;11.40;9.33;;;;;;;16.26;59.18;99036.31;4137391;28;20264;-63
2022/05/04 07:17:45;;;;;;;11.37;9.67;;;;;;;16.61;58.10;99012.63;4144072;28;20306;-63
2022/05/04 07:19:47;;;;;;;11.83;9.50;;;;;;;15.28;58.48;99114.84;4143556;28;20240;-62
2022/05/04 07:21:49;;;;;;;10.60;9.50;;;;;;;16.20;59.05;99054.09;4145255;28;20236;-62
2022/05/04 07:23:51;;;;;;;11.20;9.07;;;;;;;16.25;59.63;99056.97;4145175;28;20379;-62
2022/05/04 07:25:54;;;;;;;11.80;9.70;;;;;;;14.40;64.18;99236.03;4144837;28;20233;-62
2022/05/04 07:27:56;;;;;;;12.63;9.87;;;;;;;16.62;58.79;99019.66;4144265;28;20220;-63
2022/05/04 07:29:57;;;;;;;11.27;10.03;;;;;;;14.60;61.82;99204.03;4126317;28;20229;-62
2022/05/04 07:31:59;;;;;;;12.13;10.20;;;;;;;15.91;60.55;99080.41;4144422;28;20331;-62
2022/05/04 07:34:01;;;;;;;14.03;10.80;;;;;;;16.31;58.26;99015.06;4144798;28;20236;-62
2022/05/04 07:36:04;;;;;;;11.50;10.30;;;;;;;16.66;57.24;99001.25;4144775;28;20233;-62
2022/05/04 07:38:05;;;;;;;10.37;9.37;;;;;;;16.96;56.26;98985.31;4149733;28;20985;-62
2022/05/04 07:42:28;;;;;;;11.23;10.03;;;;;;;16.99;56.17;99000.16;4145800;28;20375;-63
2022/05/04 07:44:30;;;;;;;12.10;9.80;;;;;;;16.11;57.22;99058.88;4143677;28;20233;-62
2022/05/04 07:46:31;;;;;;;13.10;10.80;;;;;;;16.77;56.71;99027.38;4145443;28;20666;-63
2022/05/04 07:48:33;;;;;;;13.33;10.10;;;;;;;17.17;54.90;98976.03;4126308;28;20818;-63
2022/05/04 07:50:35;;;;;;;11.70;9.60;;;;;;;16.67;55.98;99030.56;4145477;28;20237;-64
2022/05/04 07:52:38;;;;;;;11.67;10.17;;;;;;;17.32;55.34;98973.03;4149182;28;20235;-64
2022/05/04 07:54:39;;;;;;;11.03;9.73;;;;;;;16.91;55.58;98999.41;4147497;28;20301;-61
2022/05/04 07:56:41;;;;;;;13.93;10.77;;;;;;;15.09;59.83;99175.41;4148847;28;20276;-61
2022/05/04 07:58:43;;;;;;;10.57;9.07;;;;;;;15.52;61.32;99186.56;4148953;28;20249;-61
2022/05/04 08:05:26;;;;;;;12.07;9.17;;;;;;;14.80;65.90;99196.09;4147356;28;20311;-61
2022/05/04 08:07:27;;;;;;;11.17;8.47;;;;;;;14.24;67.14;99251.34;4144723;28;20295;-61
2022/05/04 08:09:34;;;;;;;12.17;9.60;;;;;;;13.61;69.15;99312.63;4147843;28;20360;-62
2022/05/04 08:11:36;;;;;;;9.93;8.90;;;;;;;14.69;66.75;99208.97;4143132;28;20233;-62
2022/05/04 08:13:37;;;;;;;11.70;9.10;;;;;;;14.76;65.21;99157.38;4150077;28;20671;-61
2022/05/04 08:15:39;;;;;;;9.90;8.90;;;;;;;14.16;67.09;99259.53;4149909;28;20255;-62
2022/05/04 08:17:41;;;;;;;11.17;9.67;;;;;;;14.31;66.42;99233.50;4148098;28;20233;-64
2022/05/04 08:19:43;;;;;;;10.93;9.03;;;;;;;13.72;68.00;99282.75;4140869;28;20256;-61
2022/05/04 08:21:44;;;;;;;12.67;9.03;;;;;;;14.49;66.12;99208.88;4144061;28;20233;-61
2022/05/04 08:23:46;;;;;;;11.33;8.93;;;;;;;14.21;66.33;99240.19;4141723;28;20374;-61
2022/05/04 08:25:50;;;;;;;12.40;10.03;;;;;;;14.79;64.99;99175.72;4144355;28;20287;-61
2022/05/04 08:27:51;;;;;;;13.80;10.63;;;;;;;14.71;65.55;99187.38;4145086;28;20229;-61
2022/05/04 08:29:53;;;;;;;13.27;10.83;;;;;;;15.68;64.08;99080.88;4145486;28;20245;-61
2022/05/04 08:31:58;;;;;;;17.30;10.53;;;;;;;15.00;63.80;99147.97;4149707;28;20583;-61
2022/05/04 08:34:00;;;;;;;13.63;10.70;;;;;;;14.91;64.79;99200.06;4143754;28;20305;-62
2022/05/04 08:36:02;;;;;;;11.63;10.43;;;;;;;14.18;66.69;99268.16;4144202;28;20810;-61
2022/05/04 08:38:03;;;;;;;13.13;10.23;;;;;;;15.70;63.41;99086.81;4144487;28;20784;-62
2022/05/04 08:40:06;;;;;;;12.33;11.13;;;;;;;16.77;60.36;98970.19;4144076;28;20228;-64
2022/05/04 08:42:08;;;;;;;13.23;10.97;;;;;;;17.41;58.48;98922.50;4236743;22;20241;-34
2022/05/04 08:44:11;;;;;;;12.53;10.97;;;;;;;15.99;62.16;99060.56;4148878;28;20229;-37
2022/05/04 08:46:15;;;;;;;13.20;10.33;;;;;;;14.57;68.29;99225.81;4157628;28;20458;-35
2022/05/04 08:48:18;;;;;;;16.23;11.23;;;;;;;15.63;66.77;99121.69;4138483;28;20276;-36
2022/05/04 08:50:22;;;;;;;12.03;10.40;;;;;;;15.05;67.21;99165.09;4143031;28;20237;-33
2022/05/04 08:52:27;;;;;;;14.00;10.10;;;;;;;14.47;69.44;99237.69;4143713;28;20640;-34
2022/05/04 08:54:29;;;;;;;11.67;10.10;;;;;;;14.74;69.22;99221.78;4142624;28;20459;-34
2022/05/04 08:56:31;;;;;;;12.37;9.87;;;;;;;15.24;67.81;99142.03;4144387;28;20229;-36
2022/05/04 08:58:37;;;;;;;13.47;10.60;;;;;;;15.31;67.90;99127.84;4146489;28;20229;-39
2022/05/04 09:00:39;;;;;;;12.60;11.13;;;;;;;14.10;69.35;99236.22;4142114;28;20240;-38
2022/05/04 09:02:41;;;;;;;13.17;10.63;;;;;;;14.03;70.33;99267.44;4146324;28;20666;-39
2022/05/04 09:04:44;;;;;;;11.37;10.17;;;;;;;14.70;69.08;99191.91;4146479;28;20585;-38
2022/05/04 09:06:45;;;;;;;12.03;10.47;;;;;;;14.97;67.55;99135.81;4147521;28;20267;-37
2022/05/04 09:09:06;;;;;;;12.20;10.63;;;;;;;15.31;66.93;99088.47;4148409;28;20276;-35
2022/05/04 09:11:15;;;;;;;14.20;10.47;;;;;;;16.61;63.85;98982.28;4145372;28;20233;-38
2022/05/04 09:13:20;;;;;;;12.80;11.50;;;;;;;16.65;63.33;98937.88;4144210;28;20776;-38
2022/05/04 09:15:33;;;;;;;13.37;11.97;;;;;;;17.57;61.27;98881.59;4146527;28;20237;-38
2022/05/04 09:17:37;;;;;;;13.07;11.67;;;;;;;17.84;60.29;98870.47;4141506;28;20238;-38
2022/05/04 09:20:45;;;;;;;12.23;10.73;;;;;;;18.35;57.85;98862.91;4128047;28;20300;-37
2022/05/04 09:22:15;;;;;;;15.03;11.03;;;;;;;18.21;57.84;98868.50;4147621;28;20229;-37
2022/05/04 09:24:26;;;;;;;13.30;10.87;;;;;;;17.85;58.30;98893.63;4145106;28;20698;-40
2022/05/04 09:26:28;;;;;;;11.73;10.60;;;;;;;17.96;58.60;98900.09;4147809;28;20283;-38
2022/05/04 09:28:30;;;;;;;11.77;10.57;;;;;;;17.53;60.07;98989.75;4147279;28;20241;-35
2022/05/04 09:30:31;;;;;;;12.90;11.00;;;;;;;18.46;57.00;98885.50;4146282;28;20294;-40
2022/05/04 09:32:39;;;;;;;11.37;10.13;;;;;;;18.34;57.52;98907.03;4144856;28;20259;-36
2022/05/04 09:34:41;;;;;;;13.53;11.40;;;;;;;18.83;55.13;98871.88;4146465;28;20766;-36
2022/05/04 09:46:37;;;;;;;13.07;11.67;;;;;;;17.31;61.72;99035.03;4147535;28;20643;-38
2022/05/04 09:48:40;;;;;;;14.57;11.10;;;;;;;17.45;59.93;99007.03;4149669;28;20264;-34
2022/05/04 09:50:42;;;;;;;17.90;12.47;;;;;;;16.42;62.66;99153.06;4147248;28;20230;-35
2022/05/04 09:52:46;;;;;;;14.67;11.20;;;;;;;17.87;59.79;98960.63;4139285;28;20239;-39
2022/05/04 09:54:48;;;;;;;13.03;11.73;;;;;;;18.31;56.39;98908.31;4143176;28;20244;-35
2022/05/04 09:56:51;;;;;;;16.10;12.07;;;;;;;18.73;56.83;98867.88;4145255;28;20300;-36
2022/05/04 09:58:53;;;;;;;13.07;11.67;;;;;;;18.70;54.98;98872.91;4147365;28;20244;-37
2022/05/04 10:00:57;;;;;;;12.70;11.37;;;;;;;18.59;56.70;98886.13;4144355;28;20749;-40
2022/05/04 10:03:00;;;;;;;18.23;11.38;;;;;;;16.89;61.29;99119.63;4146544;28;20611;-36
2022/05/04 10:05:07;;;;;;;12.37;11.17;;;;;;;18.23;58.31;98935.53;4148426;28;20846;-35